Time;durP1;ratioP1;P1;durP2;ratioP2;P2;SDS_P1;SDS_P2;PMS_P1;PMS_P2;Temp;Humidity;BMP_temperature;BMP_pressure;BME280_temperature;BME280_humidity;BME280_pressure;Samples;Min_cycle;Max_cycle;Signal;HPM_P1;HPM_P2
2022/06/02 06:02:26;;;;;;;5.28;4.00;;;;;;;;;;10538672;27;20410;-86
2022/06/02 06:07:46;;;;;;;5.32;4.45;;;;;;;;;;10552296;28;20043;-87
2022/06/02 06:13:11;;;;;;;6.15;3.97;;;;;;;;;;10536737;28;20127;-87
2022/06/02 06:18:26;;;;;;;6.93;6.25;;;;;;;;;;10538139;28;20042;-86
2022/06/02 06:23:53;;;;;;;8.15;6.57;;;;;;;;;;10520025;28;20028;-84
2022/06/02 06:29:13;;;;;;;3.63;3.33;;;;;;;;;;10544169;28;20025;-85
2022/06/02 06:34:26;;;;;;;6.65;6.05;;;;;;;;;;10566176;28;20032;-85
2022/06/02 06:39:48;;;;;;;7.53;6.78;;;;;;;;;;10537712;28;20008;-85
2022/06/02 06:44:56;;;;;;;5.68;5.07;;;;;;;;;;10539985;28;20050;-85
2022/06/02 06:50:04;;;;;;;3.08;2.80;;;;;;;;;;10538342;28;20086;-85
2022/06/02 06:55:13;;;;;;;9.27;7.03;;;;;;;;;;10539484;28;20335;-85
2022/06/02 07:00:22;;;;;;;3.08;2.53;;;;;;;;;;10537863;28;20028;-82
2022/06/02 07:05:23;;;;;;;2.58;2.22;;;;;;;;;;10542708;28;20043;-81
2022/06/02 07:10:42;;;;;;;4.32;2.35;;;;;;;;;;10525755;28;20363;-80
2022/06/02 07:16:01;;;;;;;4.22;2.50;;;;;;;;;;10510418;28;20497;-80
2022/06/02 07:21:12;;;;;;;4.78;2.30;;;;;;;;;;10507766;28;20050;-81
2022/06/02 07:26:20;;;;;;;4.03;2.17;;;;;;;;;;10509951;28;20037;-80
2022/06/02 07:31:21;;;;;;;3.92;2.10;;;;;;;;;;10506449;28;20020;-80
2022/06/02 07:36:45;;;;;;;4.45;2.70;;;;;;;;;;10508171;28;20020;-80
2022/06/02 07:42:05;;;;;;;2.65;2.00;;;;;;;;;;10509160;28;20196;-81
2022/06/02 07:47:24;;;;;;;2.40;1.90;;;;;;;;;;10510465;28;20028;-81
2022/06/02 07:52:35;;;;;;;2.65;2.15;;;;;;;;;;10511647;28;20501;-82
2022/06/02 07:57:39;;;;;;;2.67;2.30;;;;;;;;;;10509236;28;20125;-82
2022/06/02 08:02:49;;;;;;;5.22;2.20;;;;;;;;;;10512233;28;20428;-83
2022/06/02 08:07:52;;;;;;;4.75;2.97;;;;;;;;;;10522039;28;20367;-84
2022/06/02 08:13:00;;;;;;;2.90;2.50;;;;;;;;;;10517478;28;20024;-84
2022/06/02 08:18:07;;;;;;;2.88;2.22;;;;;;;;;;10518123;28;20042;-83
2022/06/02 08:23:23;;;;;;;3.97;2.90;;;;;;;;;;10522676;28;20032;-84
2022/06/02 08:28:51;;;;;;;6.05;3.00;;;;;;;;;;10519188;28;20025;-84
2022/06/02 08:34:15;;;;;;;3.38;2.67;;;;;;;;;;10525714;28;20028;-84
2022/06/02 08:39:29;;;;;;;3.00;2.70;;;;;;;;;;10517697;28;20155;-86
2022/06/02 08:44:42;;;;;;;3.85;2.20;;;;;;;;;;10519093;28;20033;-84
2022/06/02 08:49:46;;;;;;;4.75;2.70;;;;;;;;;;10518964;28;20494;-84
2022/06/02 08:55:06;;;;;;;4.15;3.28;;;;;;;;;;10517295;28;20025;-85
2022/06/02 09:00:07;;;;;;;;;;;;;;;;;;10515323;28;20158;-82
2022/06/02 09:05:11;;;;;;;2.63;2.20;;;;;;;;;;10513700;28;20017;-82
2022/06/02 09:10:12;;;;;;;4.32;3.30;;;;;;;;;;10513751;28;20040;-82
2022/06/02 09:15:35;;;;;;;3.50;2.63;;;;;;;;;;10507947;28;20024;-82
2022/06/02 09:20:46;;;;;;;3.38;1.90;;;;;;;;;;10513290;28;20144;-82
2022/06/02 09:25:56;;;;;;;9.82;8.05;;;;;;;;;;10515164;28;20047;-82
2022/06/02 09:30:57;;;;;;;;;;;;;;;;;;10511723;28;20032;-83
2022/06/02 09:36:04;;;;;;;2.95;1.80;;;;;;;;;;10508948;28;19911;-83
2022/06/02 09:41:24;;;;;;;2.70;1.95;;;;;;;;;;10510841;28;20498;-83
2022/06/02 09:46:43;;;;;;;6.10;1.90;;;;;;;;;;10512782;28;20024;-82
2022/06/02 09:51:54;;;;;;;2.55;1.38;;;;;;;;;;10512180;28;20033;-83
2022/06/02 09:57:04;;;;;;;3.10;1.58;;;;;;;;;;10511831;28;20024;-83
2022/06/02 10:02:29;;;;;;;2.13;1.60;;;;;;;;;;10518755;28;20039;-84
2022/06/02 10:07:36;;;;;;;1.80;1.60;;;;;;;;;;10517600;28;20096;-84
2022/06/02 10:12:57;;;;;;;1.88;1.60;;;;;;;;;;10525983;28;20025;-84
2022/06/02 10:18:03;;;;;;;3.05;1.70;;;;;;;;;;10515590;28;20025;-83
2022/06/02 10:23:23;;;;;;;3.03;1.65;;;;;;;;;;10503058;28;20494;-83
2022/06/02 10:28:30;;;;;;;1.30;1.20;;;;;;;;;;10504715;28;20036;-83
2022/06/02 10:33:35;;;;;;;2.80;2.60;;;;;;;;;;10502642;28;20021;-83
2022/06/02 10:38:36;;;;;;;8.35;6.60;;;;;;;;;;10507357;28;20031;-84
2022/06/02 10:43:45;;;;;;;2.53;2.08;;;;;;;;;;10512315;28;20526;-83
2022/06/02 10:48:55;;;;;;;3.42;1.80;;;;;;;;;;10519829;28;20032;-84
2022/06/02 10:54:09;;;;;;;4.68;3.97;;;;;;;;;;10516408;28;20020;-84
2022/06/02 10:59:16;;;;;;;2.60;1.52;;;;;;;;;;10515571;28;20032;-84
2022/06/02 11:04:17;;;;;;;3.35;2.45;;;;;;;;;;10513829;28;20106;-84
2022/06/02 11:09:42;;;;;;;3.35;2.17;;;;;;;;;;10519244;28;20144;-84
2022/06/02 11:15:01;;;;;;;3.05;2.20;;;;;;;;;;10516902;28;20020;-84
2022/06/02 11:20:21;;;;;;;3.15;2.65;;;;;;;;;;10514483;28;20029;-84
2022/06/02 11:25:45;;;;;;;2.28;1.92;;;;;;;;;;10512840;28;20033;-83
2022/06/02 11:30:49;;;;;;;7.53;5.57;;;;;;;;;;10518556;28;20130;-84
2022/06/02 11:36:10;;;;;;;2.33;1.80;;;;;;;;;;10518043;28;20111;-84
2022/06/02 11:41:11;;;;;;;;;;;;;;;;;;10515307;28;20024;-84
2022/06/02 11:46:28;;;;;;;2.63;2.13;;;;;;;;;;10516072;28;19955;-83
2022/06/02 11:51:48;;;;;;;2.50;2.30;;;;;;;;;;10517255;28;20059;-83
2022/06/02 11:57:07;;;;;;;3.53;2.90;;;;;;;;;;10515215;28;20021;-83
2022/06/02 12:02:27;;;;;;;4.27;2.67;;;;;;;;;;10528351;28;20020;-81
2022/06/02 12:07:47;;;;;;;4.45;3.40;;;;;;;;;;10516029;28;20017;-83
2022/06/02 12:12:48;;;;;;;2.80;2.60;;;;;;;;;;10516686;28;20115;-83
2022/06/02 12:17:56;;;;;;;4.07;3.22;;;;;;;;;;10513715;28;20036;-84
2022/06/02 12:23:00;;;;;;;5.30;3.20;;;;;;;;;;10512150;28;20198;-84
2022/06/02 12:28:20;;;;;;;4.07;3.05;;;;;;;;;;10506926;28;20066;-85
2022/06/02 12:33:40;;;;;;;2.38;2.10;;;;;;;;;;10510138;28;20025;-84
2022/06/02 12:38:41;;;;;;;;;;;;;;;;;;10513051;28;20035;-83
2022/06/02 12:44:21;;;;;;;3.78;2.20;;;;;;;;;;10512836;28;20281;-85
2022/06/02 12:49:21;;;;;;;3.93;3.53;;;;;;;;;;10538222;28;20218;-86
2022/06/02 12:54:41;;;;;;;4.30;2.75;;;;;;;;;;10526136;28;20714;-86
2022/06/02 12:59:42;;;;;;;3.53;2.50;;;;;;;;;;10516604;28;20043;-84
2022/06/02 13:05:12;;;;;;;2.92;1.98;;;;;;;;;;10518174;28;20498;-86
2022/06/02 13:10:21;;;;;;;2.75;2.22;;;;;;;;;;10518089;28;20055;-85
2022/06/02 13:15:41;;;;;;;3.20;2.03;;;;;;;;;;10512466;28;20036;-85
2022/06/02 13:20:46;;;;;;;5.88;3.17;;;;;;;;;;10516611;28;20090;-84
2022/06/02 13:26:03;;;;;;;3.15;2.13;;;;;;;;;;10516144;28;20620;-85
2022/06/02 13:31:22;;;;;;;2.42;2.22;;;;;;;;;;10517180;28;20522;-83
2022/06/02 13:36:39;;;;;;;3.60;2.50;;;;;;;;;;10513711;28;20051;-84
2022/06/02 13:41:59;;;;;;;3.85;1.70;;;;;;;;;;10513517;28;20031;-85
2022/06/02 13:47:12;;;;;;;2.88;2.55;;;;;;;;;;10510268;28;20407;-84
2022/06/02 13:52:48;;;;;;;3.85;2.20;;;;;;;;;;10529274;28;20032;-84
2022/06/02 13:57:56;;;;;;;3.35;2.13;;;;;;;;;;10513174;28;20040;-85
2022/06/02 14:03:19;;;;;;;2.80;2.40;;;;;;;;;;10509632;28;20427;-84
2022/06/02 14:08:39;;;;;;;3.28;1.90;;;;;;;;;;10503649;28;20047;-83
2022/06/02 14:14:08;;;;;;;3.97;2.38;;;;;;;;;;10504881;28;20099;-83
2022/06/02 14:19:18;;;;;;;2.10;1.70;;;;;;;;;;10505418;28;20037;-83
2022/06/02 14:24:41;;;;;;;3.38;1.58;;;;;;;;;;10513711;28;20025;-83
2022/06/02 14:29:51;;;;;;;3.50;2.40;;;;;;;;;;10515120;28;20024;-84
2022/06/02 14:34:55;;;;;;;12.05;9.18;;;;;;;;;;10515450;28;20013;-83
2022/06/02 14:40:00;;;;;;;4.60;2.20;;;;;;;;;;10513528;28;20033;-84
2022/06/02 14:45:08;;;;;;;3.08;1.90;;;;;;;;;;10509947;28;20021;-83
2022/06/02 14:50:30;;;;;;;1.42;1.20;;;;;;;;;;10509889;28;20042;-84
2022/06/02 14:55:31;;;;;;;3.13;1.40;;;;;;;;;;10509776;28;20028;-83
2022/06/02 15:00:41;;;;;;;3.22;1.83;;;;;;;;;;10513754;28;20414;-84
2022/06/02 15:05:42;;;;;;;3.38;1.73;;;;;;;;;;10512494;28;20036;-84
2022/06/02 15:10:49;;;;;;;8.05;4.00;;;;;;;;;;10513577;28;20021;-83
2022/06/02 15:16:08;;;;;;;3.00;1.75;;;;;;;;;;10510926;28;20031;-83
2022/06/02 15:21:28;;;;;;;4.28;2.95;;;;;;;;;;10511833;28;20025;-84
2022/06/02 15:26:48;;;;;;;1.60;1.50;;;;;;;;;;10512581;28;20397;-84
2022/06/02 15:31:49;;;;;;;2.50;1.50;;;;;;;;;;10511126;28;20028;-84
2022/06/02 15:37:12;;;;;;;1.77;1.23;;;;;;;;;;10524061;28;20035;-85
2022/06/02 15:42:24;;;;;;;1.95;1.42;;;;;;;;;;10516150;28;20020;-84
2022/06/02 15:47:43;;;;;;;2.90;1.45;;;;;;;;;;10509709;28;20485;-84
2022/06/02 15:53:02;;;;;;;1.50;1.08;;;;;;;;;;10509735;28;20087;-84
2022/06/02 15:58:17;;;;;;;2.37;1.70;;;;;;;;;;10507975;28;20031;-82
2022/06/02 16:03:18;;;;;;;2.50;1.58;;;;;;;;;;10509125;28;20279;-82
2022/06/02 16:08:28;;;;;;;2.20;1.58;;;;;;;;;;10508469;28;20084;-84
2022/06/02 16:13:29;;;;;;;2.40;1.58;;;;;;;;;;10510101;28;20050;-84
2022/06/02 16:18:49;;;;;;;1.95;1.42;;;;;;;;;;10505874;28;20075;-79
2022/06/02 16:24:03;;;;;;;2.40;1.63;;;;;;;;;;10505364;28;20480;-82
2022/06/02 16:29:31;;;;;;;1.65;1.17;;;;;;;;;;10510037;28;20294;-85
2022/06/02 16:34:52;;;;;;;3.58;1.88;;;;;;;;;;10508651;28;20029;-83
2022/06/02 16:39:53;;;;;;;2.95;1.75;;;;;;;;;;10510813;28;20024;-84
2022/06/02 16:45:06;;;;;;;1.50;1.40;;;;;;;;;;10511717;28;20020;-84
2022/06/02 16:50:10;;;;;;;3.25;2.95;;;;;;;;;;10509903;28;20034;-84
2022/06/02 16:55:14;;;;;;;2.13;1.50;;;;;;;;;;10512152;28;20035;-84
2022/06/02 17:00:21;;;;;;;7.63;4.80;;;;;;;;;;10506853;28;20097;-84
2022/06/02 17:05:41;;;;;;;2.40;2.00;;;;;;;;;;10513715;28;20024;-84
2022/06/02 17:10:45;;;;;;;1.75;1.60;;;;;;;;;;10512633;28;20029;-84
2022/06/02 17:15:59;;;;;;;3.10;2.15;;;;;;;;;;10511981;28;20017;-84
2022/06/02 17:21:24;;;;;;;2.28;1.77;;;;;;;;;;10516029;28;20020;-84
2022/06/02 17:26:44;;;;;;;1.83;1.50;;;;;;;;;;10528961;28;20062;-84
2022/06/02 17:31:54;;;;;;;3.13;2.22;;;;;;;;;;10509388;28;20406;-84
2022/06/02 17:36:58;;;;;;;3.22;1.67;;;;;;;;;;10509718;28;20033;-82
2022/06/02 17:42:20;;;;;;;1.90;1.48;;;;;;;;;;10505027;28;20020;-82
2022/06/02 17:47:39;;;;;;;2.47;2.03;;;;;;;;;;10503541;28;20124;-82
2022/06/02 17:52:54;;;;;;;3.75;2.80;;;;;;;;;;10503868;28;20027;-82
2022/06/02 17:58:01;;;;;;;1.90;1.67;;;;;;;;;;10503669;28;20060;-82
2022/06/02 18:03:07;;;;;;;2.58;1.67;;;;;;;;;;10503111;28;20033;-82
2022/06/02 18:08:23;;;;;;;3.00;2.63;;;;;;;;;;10503050;28;20457;-82
2022/06/02 18:13:38;;;;;;;1.75;1.65;;;;;;;;;;10501902;28;20044;-80
2022/06/02 18:18:42;;;;;;;2.92;2.63;;;;;;;;;;10502506;28;20497;-80
2022/06/02 18:23:59;;;;;;;2.75;1.85;;;;;;;;;;10502843;28;20028;-80
2022/06/02 18:29:12;;;;;;;2.75;1.75;;;;;;;;;;10502105;28;20028;-81
2022/06/02 18:34:32;;;;;;;2.13;1.70;;;;;;;;;;10505040;28;20043;-81
2022/06/02 18:39:39;;;;;;;3.30;2.70;;;;;;;;;;10502238;28;20028;-81
2022/06/02 18:44:49;;;;;;;2.65;1.95;;;;;;;;;;10504484;28;20074;-81
2022/06/02 18:50:06;;;;;;;3.20;2.30;;;;;;;;;;10506091;28;20071;-81
2022/06/02 18:55:22;;;;;;;2.17;1.83;;;;;;;;;;10500766;28;20024;-81
2022/06/02 19:00:35;;;;;;;2.65;2.30;;;;;;;;;;10502087;28;20086;-81
2022/06/02 19:05:55;;;;;;;1.30;1.20;;;;;;;;;;10501476;28;20051;-82
2022/06/02 19:16:38;;;;;;;2.65;1.60;;;;;;;;;;10550987;28;20036;-81
2022/06/02 19:21:47;;;;;;;2.08;1.42;;;;;;;;;;10506309;28;20036;-81
